sensor_id;sensor_type;location;lat;lon;timestamp;temperature;humidity
78522;SHT31;67819;51.972;5.678;2023-04-28T00:00:58;11.9;40.2
78522;SHT31;67819;51.972;5.678;2023-04-28T00:03:27;11.9;40.3
78522;SHT31;67819;51.972;5.678;2023-04-28T00:05:55;11.9;40.2
78522;SHT31;67819;51.972;5.678;2023-04-28T00:08:24;11.8;40.4
78522;SHT31;67819;51.972;5.678;2023-04-28T00:10:53;11.8;40.2
78522;SHT31;67819;51.972;5.678;2023-04-28T00:13:22;11.8;40.6
78522;SHT31;67819;51.972;5.678;2023-04-28T00:15:50;11.8;40.5
78522;SHT31;67819;51.972;5.678;2023-04-28T00:18:20;11.8;40.4
78522;SHT31;67819;51.972;5.678;2023-04-28T00:20:49;11.7;40.6
78522;SHT31;67819;51.972;5.678;2023-04-28T00:23:17;11.7;40.8
78522;SHT31;67819;51.972;5.678;2023-04-28T00:25:49;11.7;40.8
78522;SHT31;67819;51.972;5.678;2023-04-28T00:28:18;11.7;40.8
78522;SHT31;67819;51.972;5.678;2023-04-28T00:30:47;11.6;41.2
78522;SHT31;67819;51.972;5.678;2023-04-28T00:33:15;11.6;41.2
78522;SHT31;67819;51.972;5.678;2023-04-28T00:35:46;11.6;41.1
78522;SHT31;67819;51.972;5.678;2023-04-28T00:38:14;11.6;41.7
78522;SHT31;67819;51.972;5.678;2023-04-28T00:40:43;11.6;41.8
78522;SHT31;67819;51.972;5.678;2023-04-28T00:43:12;11.6;41.8
78522;SHT31;67819;51.972;5.678;2023-04-28T00:45:41;11.6;41.5
78522;SHT31;67819;51.972;5.678;2023-04-28T00:48:10;11.6;41.9
78522;SHT31;67819;51.972;5.678;2023-04-28T00:50:40;11.6;41.9
78522;SHT31;67819;51.972;5.678;2023-04-28T00:53:10;11.6;41.9
78522;SHT31;67819;51.972;5.678;2023-04-28T00:55:39;11.6;42.6
78522;SHT31;67819;51.972;5.678;2023-04-28T00:58:08;11.6;44.3
78522;SHT31;67819;51.972;5.678;2023-04-28T01:00:37;11.5;44.9
78522;SHT31;67819;51.972;5.678;2023-04-28T01:03:06;11.5;46.3
78522;SHT31;67819;51.972;5.678;2023-04-28T01:05:35;11.5;45.7
78522;SHT31;67819;51.972;5.678;2023-04-28T01:08:04;11.4;46.9
78522;SHT31;67819;51.972;5.678;2023-04-28T01:10:33;11.4;48.2
78522;SHT31;67819;51.972;5.678;2023-04-28T01:13:01;11.3;48.8
78522;SHT31;67819;51.972;5.678;2023-04-28T01:15:30;11.2;49.5
78522;SHT31;67819;51.972;5.678;2023-04-28T01:17:59;11.1;49.4
78522;SHT31;67819;51.972;5.678;2023-04-28T01:20:27;11.1;49.9
78522;SHT31;67819;51.972;5.678;2023-04-28T01:22:58;10.9;51.4
78522;SHT31;67819;51.972;5.678;2023-04-28T01:25:29;10.8;50.2
78522;SHT31;67819;51.972;5.678;2023-04-28T01:27:57;10.8;50.4
78522;SHT31;67819;51.972;5.678;2023-04-28T01:30:26;10.7;51.4
78522;SHT31;67819;51.972;5.678;2023-04-28T01:32:54;10.6;51.4
78522;SHT31;67819;51.972;5.678;2023-04-28T01:35:23;10.6;52.1
78522;SHT31;67819;51.972;5.678;2023-04-28T01:37:52;10.6;52.2
78522;SHT31;67819;51.972;5.678;2023-04-28T01:40:21;10.5;50.8
78522;SHT31;67819;51.972;5.678;2023-04-28T01:42:50;10.5;51.7
78522;SHT31;67819;51.972;5.678;2023-04-28T01:45:18;10.5;52.3
78522;SHT31;67819;51.972;5.678;2023-04-28T01:47:47;10.4;51.8
78522;SHT31;67819;51.972;5.678;2023-04-28T01:50:15;10.4;52.4
78522;SHT31;67819;51.972;5.678;2023-04-28T01:52:44;10.4;53.0
78522;SHT31;67819;51.972;5.678;2023-04-28T01:55:13;10.4;52.0
78522;SHT31;67819;51.972;5.678;2023-04-28T01:57:41;10.4;51.6
78522;SHT31;67819;51.972;5.678;2023-04-28T02:00:10;10.4;51.7
78522;SHT31;67819;51.972;5.678;2023-04-28T02:02:39;10.4;50.9
78522;SHT31;67819;51.972;5.678;2023-04-28T02:05:08;10.4;51.7
78522;SHT31;67819;51.972;5.678;2023-04-28T02:07:37;10.4;51.9
78522;SHT31;67819;51.972;5.678;2023-04-28T02:10:08;10.4;51.1
78522;SHT31;67819;51.972;5.678;2023-04-28T02:12:37;10.4;51.9
78522;SHT31;67819;51.972;5.678;2023-04-28T02:15:07;10.4;51.3
78522;SHT31;67819;51.972;5.678;2023-04-28T02:17:36;10.4;53.6
78522;SHT31;67819;51.972;5.678;2023-04-28T02:20:06;10.4;51.8
78522;SHT31;67819;51.972;5.678;2023-04-28T02:22:35;10.4;51.0
78522;SHT31;67819;51.972;5.678;2023-04-28T02:25:03;10.4;50.3
78522;SHT31;67819;51.972;5.678;2023-04-28T02:27:34;10.4;51.4
78522;SHT31;67819;51.972;5.678;2023-04-28T02:30:03;10.4;51.4
78522;SHT31;67819;51.972;5.678;2023-04-28T02:32:32;10.4;50.8
78522;SHT31;67819;51.972;5.678;2023-04-28T02:35:02;10.4;51.9
78522;SHT31;67819;51.972;5.678;2023-04-28T02:37:33;10.4;50.7
78522;SHT31;67819;51.972;5.678;2023-04-28T02:40:02;10.4;50.9
78522;SHT31;67819;51.972;5.678;2023-04-28T02:42:30;10.5;51.0
78522;SHT31;67819;51.972;5.678;2023-04-28T02:44:59;10.5;51.0
78522;SHT31;67819;51.972;5.678;2023-04-28T02:47:27;10.5;51.0
78522;SHT31;67819;51.972;5.678;2023-04-28T02:49:56;10.5;50.9
78522;SHT31;67819;51.972;5.678;2023-04-28T02:52:27;10.5;50.5
78522;SHT31;67819;51.972;5.678;2023-04-28T02:54:55;10.5;50.3
78522;SHT31;67819;51.972;5.678;2023-04-28T02:57:24;10.5;51.1
78522;SHT31;67819;51.972;5.678;2023-04-28T02:59:53;10.5;51.1
78522;SHT31;67819;51.972;5.678;2023-04-28T03:02:21;10.5;50.2
78522;SHT31;67819;51.972;5.678;2023-04-28T03:04:50;10.5;50.3
78522;SHT31;67819;51.972;5.678;2023-04-28T03:07:18;10.5;50.4
78522;SHT31;67819;51.972;5.678;2023-04-28T03:09:47;10.5;50.9
78522;SHT31;67819;51.972;5.678;2023-04-28T03:12:15;10.5;50.8
78522;SHT31;67819;51.972;5.678;2023-04-28T03:14:44;10.6;50.7
78522;SHT31;67819;51.972;5.678;2023-04-28T03:17:13;10.6;50.8
78522;SHT31;67819;51.972;5.678;2023-04-28T03:19:41;10.6;50.4
78522;SHT31;67819;51.972;5.678;2023-04-28T03:22:10;10.6;50.0
78522;SHT31;67819;51.972;5.678;2023-04-28T03:24:38;10.6;49.9
78522;SHT31;67819;51.972;5.678;2023-04-28T03:27:07;10.6;50.3
78522;SHT31;67819;51.972;5.678;2023-04-28T03:29:35;10.6;50.5
78522;SHT31;67819;51.972;5.678;2023-04-28T03:32:04;10.6;50.9
78522;SHT31;67819;51.972;5.678;2023-04-28T03:34:33;10.6;51.9
78522;SHT31;67819;51.972;5.678;2023-04-28T03:37:02;10.7;50.5
78522;SHT31;67819;51.972;5.678;2023-04-28T03:39:30;10.7;50.6
78522;SHT31;67819;51.972;5.678;2023-04-28T03:41:59;10.7;50.4
78522;SHT31;67819;51.972;5.678;2023-04-28T03:44:28;10.7;51.5
78522;SHT31;67819;51.972;5.678;2023-04-28T03:46:56;10.7;50.8
78522;SHT31;67819;51.972;5.678;2023-04-28T03:49:25;10.7;50.6
78522;SHT31;67819;51.972;5.678;2023-04-28T03:51:54;10.8;51.4
78522;SHT31;67819;51.972;5.678;2023-04-28T03:54:22;10.8;51.5
78522;SHT31;67819;51.972;5.678;2023-04-28T03:56:51;10.8;51.5
78522;SHT31;67819;51.972;5.678;2023-04-28T03:59:19;10.8;52.0
78522;SHT31;67819;51.972;5.678;2023-04-28T04:01:48;10.8;53.0
78522;SHT31;67819;51.972;5.678;2023-04-28T04:04:17;10.8;52.2
78522;SHT31;67819;51.972;5.678;2023-04-28T04:06:45;10.8;52.2
78522;SHT31;67819;51.972;5.678;2023-04-28T04:09:14;10.8;52.7
78522;SHT31;67819;51.972;5.678;2023-04-28T04:11:43;10.8;52.7
78522;SHT31;67819;51.972;5.678;2023-04-28T04:14:11;10.8;52.6
78522;SHT31;67819;51.972;5.678;2023-04-28T04:16:40;10.8;52.8
78522;SHT31;67819;51.972;5.678;2023-04-28T04:19:09;10.8;52.9
78522;SHT31;67819;51.972;5.678;2023-04-28T04:21:37;10.8;53.2
78522;SHT31;67819;51.972;5.678;2023-04-28T04:24:06;10.8;53.6
78522;SHT31;67819;51.972;5.678;2023-04-28T04:26:35;10.8;53.8
78522;SHT31;67819;51.972;5.678;2023-04-28T04:29:04;10.8;54.1
78522;SHT31;67819;51.972;5.678;2023-04-28T04:31:32;10.9;54.2
78522;SHT31;67819;51.972;5.678;2023-04-28T04:34:03;10.9;54.6
78522;SHT31;67819;51.972;5.678;2023-04-28T04:36:32;10.9;54.4
78522;SHT31;67819;51.972;5.678;2023-04-28T04:39:00;10.9;54.5
78522;SHT31;67819;51.972;5.678;2023-04-28T04:41:29;10.9;54.8
78522;SHT31;67819;51.972;5.678;2023-04-28T04:43:57;10.9;54.9
78522;SHT31;67819;51.972;5.678;2023-04-28T04:46:26;10.9;55.0
78522;SHT31;67819;51.972;5.678;2023-04-28T04:48:55;11.0;55.2
78522;SHT31;67819;51.972;5.678;2023-04-28T04:51:23;11.0;55.3
78522;SHT31;67819;51.972;5.678;2023-04-28T04:53:54;11.0;55.5
78522;SHT31;67819;51.972;5.678;2023-04-28T04:56:22;11.0;55.7
78522;SHT31;67819;51.972;5.678;2023-04-28T04:58:51;11.0;56.2
78522;SHT31;67819;51.972;5.678;2023-04-28T05:01:20;11.0;56.0
78522;SHT31;67819;51.972;5.678;2023-04-28T05:03:48;11.0;55.8
78522;SHT31;67819;51.972;5.678;2023-04-28T05:06:17;11.0;56.1
78522;SHT31;67819;51.972;5.678;2023-04-28T05:08:46;11.0;56.2
78522;SHT31;67819;51.972;5.678;2023-04-28T05:11:15;11.1;56.3
78522;SHT31;67819;51.972;5.678;2023-04-28T05:13:44;11.1;56.3
78522;SHT31;67819;51.972;5.678;2023-04-28T05:16:12;11.1;56.5
78522;SHT31;67819;51.972;5.678;2023-04-28T05:18:43;11.1;56.8
78522;SHT31;67819;51.972;5.678;2023-04-28T05:21:12;11.1;60.3
78522;SHT31;67819;51.972;5.678;2023-04-28T05:23:41;11.1;60.9
78522;SHT31;67819;51.972;5.678;2023-04-28T05:26:10;11.1;61.7
78522;SHT31;67819;51.972;5.678;2023-04-28T05:28:40;11.1;61.3
78522;SHT31;67819;51.972;5.678;2023-04-28T05:31:08;11.1;58.6
78522;SHT31;67819;51.972;5.678;2023-04-28T05:33:37;11.2;61.9
78522;SHT31;67819;51.972;5.678;2023-04-28T05:36:06;11.2;60.7
78522;SHT31;67819;51.972;5.678;2023-04-28T05:38:35;11.2;59.8
78522;SHT31;67819;51.972;5.678;2023-04-28T05:41:06;11.3;61.6
78522;SHT31;67819;51.972;5.678;2023-04-28T05:43:35;11.3;60.1
78522;SHT31;67819;51.972;5.678;2023-04-28T05:46:04;11.4;59.5
78522;SHT31;67819;51.972;5.678;2023-04-28T05:48:33;11.4;58.5
78522;SHT31;67819;51.972;5.678;2023-04-28T05:51:01;11.4;58.5
78522;SHT31;67819;51.972;5.678;2023-04-28T05:53:30;11.4;58.9
78522;SHT31;67819;51.972;5.678;2023-04-28T05:55:59;11.5;59.2
78522;SHT31;67819;51.972;5.678;2023-04-28T05:58:27;11.5;61.2
78522;SHT31;67819;51.972;5.678;2023-04-28T06:00:59;11.5;63.5
78522;SHT31;67819;51.972;5.678;2023-04-28T06:03:28;11.4;63.0
78522;SHT31;67819;51.972;5.678;2023-04-28T06:05:58;11.4;63.4
78522;SHT31;67819;51.972;5.678;2023-04-28T06:08:29;11.4;65.1
78522;SHT31;67819;51.972;5.678;2023-04-28T06:10:57;11.3;65.4
78522;SHT31;67819;51.972;5.678;2023-04-28T06:13:26;11.3;66.2
78522;SHT31;67819;51.972;5.678;2023-04-28T06:15:55;11.2;67.0
78522;SHT31;67819;51.972;5.678;2023-04-28T06:18:23;11.1;67.8
78522;SHT31;67819;51.972;5.678;2023-04-28T06:20:54;11.1;68.8
78522;SHT31;67819;51.972;5.678;2023-04-28T06:23:23;11.0;69.6
78522;SHT31;67819;51.972;5.678;2023-04-28T06:25:51;11.0;69.8
78522;SHT31;67819;51.972;5.678;2023-04-28T06:28:20;11.0;70.0
78522;SHT31;67819;51.972;5.678;2023-04-28T06:30:49;11.0;70.5
78522;SHT31;67819;51.972;5.678;2023-04-28T06:33:17;11.1;71.1
78522;SHT31;67819;51.972;5.678;2023-04-28T06:35:46;11.1;71.2
78522;SHT31;67819;51.972;5.678;2023-04-28T06:38:16;11.1;71.9
78522;SHT31;67819;51.972;5.678;2023-04-28T06:40:45;11.1;72.1
78522;SHT31;67819;51.972;5.678;2023-04-28T06:43:14;11.2;71.8
78522;SHT31;67819;51.972;5.678;2023-04-28T06:45:42;11.2;72.2
78522;SHT31;67819;51.972;5.678;2023-04-28T06:48:11;11.3;73.0
78522;SHT31;67819;51.972;5.678;2023-04-28T06:50:40;11.4;73.2
78522;SHT31;67819;51.972;5.678;2023-04-28T06:53:10;11.5;73.6
78522;SHT31;67819;51.972;5.678;2023-04-28T06:55:39;11.6;73.1
78522;SHT31;67819;51.972;5.678;2023-04-28T06:58:07;11.7;72.4
78522;SHT31;67819;51.972;5.678;2023-04-28T07:00:36;11.8;72.1
78522;SHT31;67819;51.972;5.678;2023-04-28T07:03:05;11.9;71.6
78522;SHT31;67819;51.972;5.678;2023-04-28T07:05:34;12.0;72.0
78522;SHT31;67819;51.972;5.678;2023-04-28T07:08:03;12.1;71.0
78522;SHT31;67819;51.972;5.678;2023-04-28T07:10:31;12.1;70.9
78522;SHT31;67819;51.972;5.678;2023-04-28T07:13:00;12.2;71.1
78522;SHT31;67819;51.972;5.678;2023-04-28T07:15:29;12.2;71.0
78522;SHT31;67819;51.972;5.678;2023-04-28T07:17:58;12.2;71.1
78522;SHT31;67819;51.972;5.678;2023-04-28T07:20:27;12.2;72.1
78522;SHT31;67819;51.972;5.678;2023-04-28T07:22:55;12.2;72.2
78522;SHT31;67819;51.972;5.678;2023-04-28T07:25:24;12.3;72.0
78522;SHT31;67819;51.972;5.678;2023-04-28T07:27:53;12.4;72.2
78522;SHT31;67819;51.972;5.678;2023-04-28T07:30:22;12.5;71.8
78522;SHT31;67819;51.972;5.678;2023-04-28T07:32:51;12.5;72.0
78522;SHT31;67819;51.972;5.678;2023-04-28T07:35:20;12.6;71.2
78522;SHT31;67819;51.972;5.678;2023-04-28T07:37:49;12.7;71.4
78522;SHT31;67819;51.972;5.678;2023-04-28T07:40:18;12.7;71.2
78522;SHT31;67819;51.972;5.678;2023-04-28T07:42:49;12.8;71.0
78522;SHT31;67819;51.972;5.678;2023-04-28T07:45:20;12.8;71.0
78522;SHT31;67819;51.972;5.678;2023-04-28T07:47:49;12.9;71.9
78522;SHT31;67819;51.972;5.678;2023-04-28T07:50:17;12.9;71.8
78522;SHT31;67819;51.972;5.678;2023-04-28T07:52:46;13.0;71.9
78522;SHT31;67819;51.972;5.678;2023-04-28T07:55:15;13.1;71.7
78522;SHT31;67819;51.972;5.678;2023-04-28T07:57:43;13.1;71.9
78522;SHT31;67819;51.972;5.678;2023-04-28T08:00:15;13.1;71.7
78522;SHT31;67819;51.972;5.678;2023-04-28T08:02:44;13.2;72.1
78522;SHT31;67819;51.972;5.678;2023-04-28T08:05:15;13.2;72.0
78522;SHT31;67819;51.972;5.678;2023-04-28T08:07:44;13.3;72.3
78522;SHT31;67819;51.972;5.678;2023-04-28T08:10:13;13.4;73.0
78522;SHT31;67819;51.972;5.678;2023-04-28T08:12:43;13.5;72.0
78522;SHT31;67819;51.972;5.678;2023-04-28T08:15:12;13.6;72.8
78522;SHT31;67819;51.972;5.678;2023-04-28T08:17:41;13.6;71.7
78522;SHT31;67819;51.972;5.678;2023-04-28T08:20:10;13.7;71.8
78522;SHT31;67819;51.972;5.678;2023-04-28T08:22:40;13.8;71.5
78522;SHT31;67819;51.972;5.678;2023-04-28T08:25:09;13.8;72.4
78522;SHT31;67819;51.972;5.678;2023-04-28T08:27:38;13.9;72.2
78522;SHT31;67819;51.972;5.678;2023-04-28T08:30:09;14.0;71.3
78522;SHT31;67819;51.972;5.678;2023-04-28T08:32:39;14.1;71.3
78522;SHT31;67819;51.972;5.678;2023-04-28T08:35:11;14.2;70.9
78522;SHT31;67819;51.972;5.678;2023-04-28T08:37:41;14.3;69.9
78522;SHT31;67819;51.972;5.678;2023-04-28T08:40:10;14.3;69.9
78522;SHT31;67819;51.972;5.678;2023-04-28T08:42:40;14.3;70.4
78522;SHT31;67819;51.972;5.678;2023-04-28T08:45:14;14.4;69.8
78522;SHT31;67819;51.972;5.678;2023-04-28T08:47:43;14.4;70.3
78522;SHT31;67819;51.972;5.678;2023-04-28T08:50:15;14.4;71.0
78522;SHT31;67819;51.972;5.678;2023-04-28T08:52:51;14.4;71.1
78522;SHT31;67819;51.972;5.678;2023-04-28T08:55:20;14.5;70.8
78522;SHT31;67819;51.972;5.678;2023-04-28T08:57:51;14.5;71.0
78522;SHT31;67819;51.972;5.678;2023-04-28T09:00:21;14.6;70.3
78522;SHT31;67819;51.972;5.678;2023-04-28T09:02:50;14.6;71.8
78522;SHT31;67819;51.972;5.678;2023-04-28T09:05:18;14.6;71.8
78522;SHT31;67819;51.972;5.678;2023-04-28T09:07:47;14.7;71.9
78522;SHT31;67819;51.972;5.678;2023-04-28T09:10:19;14.7;71.2
78522;SHT31;67819;51.972;5.678;2023-04-28T09:12:50;14.8;70.9
78522;SHT31;67819;51.972;5.678;2023-04-28T09:15:31;14.9;70.0
78522;SHT31;67819;51.972;5.678;2023-04-28T09:18:00;14.9;70.4
78522;SHT31;67819;51.972;5.678;2023-04-28T09:20:31;14.9;70.7
78522;SHT31;67819;51.972;5.678;2023-04-28T09:23:14;14.9;70.6
78522;SHT31;67819;51.972;5.678;2023-04-28T09:25:56;14.9;71.3
78522;SHT31;67819;51.972;5.678;2023-04-28T09:28:26;14.9;71.1
78522;SHT31;67819;51.972;5.678;2023-04-28T09:30:55;14.9;71.0
78522;SHT31;67819;51.972;5.678;2023-04-28T09:33:24;14.9;70.8
78522;SHT31;67819;51.972;5.678;2023-04-28T09:35:54;14.9;71.3
78522;SHT31;67819;51.972;5.678;2023-04-28T09:38:23;14.9;71.5
78522;SHT31;67819;51.972;5.678;2023-04-28T09:40:56;14.9;72.0
78522;SHT31;67819;51.972;5.678;2023-04-28T09:43:27;14.9;71.9
78522;SHT31;67819;51.972;5.678;2023-04-28T09:45:58;14.9;72.6
78522;SHT31;67819;51.972;5.678;2023-04-28T09:48:29;14.9;72.8
78522;SHT31;67819;51.972;5.678;2023-04-28T09:50:59;14.9;73.2
78522;SHT31;67819;51.972;5.678;2023-04-28T09:53:29;14.9;72.9
78522;SHT31;67819;51.972;5.678;2023-04-28T09:56:00;14.9;73.3
78522;SHT31;67819;51.972;5.678;2023-04-28T09:58:29;15.0;73.6
78522;SHT31;67819;51.972;5.678;2023-04-28T10:00:59;15.0;73.8
78522;SHT31;67819;51.972;5.678;2023-04-28T10:03:29;15.0;73.5
78522;SHT31;67819;51.972;5.678;2023-04-28T10:05:58;15.0;74.1
78522;SHT31;67819;51.972;5.678;2023-04-28T10:08:27;15.0;74.4
78522;SHT31;67819;51.972;5.678;2023-04-28T10:10:56;15.0;75.0
78522;SHT31;67819;51.972;5.678;2023-04-28T10:13:25;15.0;75.7
78522;SHT31;67819;51.972;5.678;2023-04-28T10:15:53;15.0;76.0
78522;SHT31;67819;51.972;5.678;2023-04-28T10:18:24;15.0;76.4
78522;SHT31;67819;51.972;5.678;2023-04-28T10:20:57;15.0;76.5
78522;SHT31;67819;51.972;5.678;2023-04-28T10:24:08;15.0;76.6
78522;SHT31;67819;51.972;5.678;2023-04-28T10:28:53;15.0;76.5
78522;SHT31;67819;51.972;5.678;2023-04-28T10:31:21;15.1;76.9
78522;SHT31;67819;51.972;5.678;2023-04-28T10:33:50;15.1;76.9
78522;SHT31;67819;51.972;5.678;2023-04-28T10:36:50;15.1;76.9
78522;SHT31;67819;51.972;5.678;2023-04-28T10:39:23;15.2;77.2
78522;SHT31;67819;51.972;5.678;2023-04-28T10:41:52;15.2;76.9
78522;SHT31;67819;51.972;5.678;2023-04-28T10:44:42;15.2;76.8
78522;SHT31;67819;51.972;5.678;2023-04-28T10:47:11;15.2;76.4
78522;SHT31;67819;51.972;5.678;2023-04-28T10:50:31;15.2;76.9
78522;SHT31;67819;51.972;5.678;2023-04-28T10:53:03;15.3;76.6
78522;SHT31;67819;51.972;5.678;2023-04-28T10:55:33;15.3;76.6
78522;SHT31;67819;51.972;5.678;2023-04-28T10:58:32;15.3;77.7
78522;SHT31;67819;51.972;5.678;2023-04-28T11:01:25;15.3;77.6
78522;SHT31;67819;51.972;5.678;2023-04-28T11:03:56;15.3;77.1
78522;SHT31;67819;51.972;5.678;2023-04-28T11:06:30;15.3;77.2
78522;SHT31;67819;51.972;5.678;2023-04-28T11:09:01;15.3;76.8
78522;SHT31;67819;51.972;5.678;2023-04-28T11:11:31;15.3;77.0
78522;SHT31;67819;51.972;5.678;2023-04-28T11:14:32;15.3;77.3
78522;SHT31;67819;51.972;5.678;2023-04-28T11:17:02;15.3;77.7
78522;SHT31;67819;51.972;5.678;2023-04-28T11:19:33;15.3;77.5
78522;SHT31;67819;51.972;5.678;2023-04-28T11:22:04;15.3;77.5
78522;SHT31;67819;51.972;5.678;2023-04-28T11:24:37;15.3;77.6
78522;SHT31;67819;51.972;5.678;2023-04-28T11:27:05;15.3;76.7
78522;SHT31;67819;51.972;5.678;2023-04-28T11:29:35;15.3;77.3
78522;SHT31;67819;51.972;5.678;2023-04-28T11:32:05;15.2;78.1
78522;SHT31;67819;51.972;5.678;2023-04-28T11:34:35;15.2;78.3
78522;SHT31;67819;51.972;5.678;2023-04-28T11:37:04;15.3;78.5
78522;SHT31;67819;51.972;5.678;2023-04-28T11:39:34;15.3;77.8
78522;SHT31;67819;51.972;5.678;2023-04-28T11:42:10;15.3;77.6
78522;SHT31;67819;51.972;5.678;2023-04-28T11:44:41;15.4;77.2
78522;SHT31;67819;51.972;5.678;2023-04-28T11:47:09;15.4;76.9
78522;SHT31;67819;51.972;5.678;2023-04-28T11:49:45;15.4;77.3
78522;SHT31;67819;51.972;5.678;2023-04-28T11:52:14;15.4;76.9
78522;SHT31;67819;51.972;5.678;2023-04-28T11:54:51;15.4;76.9
78522;SHT31;67819;51.972;5.678;2023-04-28T11:57:20;15.4;77.1
78522;SHT31;67819;51.972;5.678;2023-04-28T11:59:49;15.4;77.3
78522;SHT31;67819;51.972;5.678;2023-04-28T12:02:25;15.4;77.1
78522;SHT31;67819;51.972;5.678;2023-04-28T12:04:55;15.4;77.5
78522;SHT31;67819;51.972;5.678;2023-04-28T12:07:24;15.4;77.9
78522;SHT31;67819;51.972;5.678;2023-04-28T12:10:11;15.3;77.9
78522;SHT31;67819;51.972;5.678;2023-04-28T12:12:41;15.3;77.8
78522;SHT31;67819;51.972;5.678;2023-04-28T12:15:10;15.3;77.1
78522;SHT31;67819;51.972;5.678;2023-04-28T12:17:40;15.3;77.4
78522;SHT31;67819;51.972;5.678;2023-04-28T12:20:12;15.3;77.0
78522;SHT31;67819;51.972;5.678;2023-04-28T12:22:46;15.3;77.4
78522;SHT31;67819;51.972;5.678;2023-04-28T12:25:17;15.3;77.3
78522;SHT31;67819;51.972;5.678;2023-04-28T12:27:59;15.3;77.2
78522;SHT31;67819;51.972;5.678;2023-04-28T12:30:30;15.2;77.6
78522;SHT31;67819;51.972;5.678;2023-04-28T12:33:00;15.2;77.8
78522;SHT31;67819;51.972;5.678;2023-04-28T12:35:29;15.2;78.2
78522;SHT31;67819;51.972;5.678;2023-04-28T12:37:58;15.1;78.0
78522;SHT31;67819;51.972;5.678;2023-04-28T12:40:29;15.1;78.4
78522;SHT31;67819;51.972;5.678;2023-04-28T12:42:57;15.1;79.1
78522;SHT31;67819;51.972;5.678;2023-04-28T12:45:26;15.1;78.0
78522;SHT31;67819;51.972;5.678;2023-04-28T12:47:56;15.1;77.6
78522;SHT31;67819;51.972;5.678;2023-04-28T12:50:26;15.1;77.8
78522;SHT31;67819;51.972;5.678;2023-04-28T12:52:58;15.1;78.2
78522;SHT31;67819;51.972;5.678;2023-04-28T12:55:29;15.1;77.5
78522;SHT31;67819;51.972;5.678;2023-04-28T12:57:58;15.1;76.9
78522;SHT31;67819;51.972;5.678;2023-04-28T13:00:27;15.2;77.5
78522;SHT31;67819;51.972;5.678;2023-04-28T13:02:56;15.2;77.3
78522;SHT31;67819;51.972;5.678;2023-04-28T13:05:24;15.2;77.4
78522;SHT31;67819;51.972;5.678;2023-04-28T13:07:54;15.3;77.2
78522;SHT31;67819;51.972;5.678;2023-04-28T13:10:23;15.4;76.9
78522;SHT31;67819;51.972;5.678;2023-04-28T13:12:52;15.4;76.1
78522;SHT31;67819;51.972;5.678;2023-04-28T13:15:20;15.5;75.2
78522;SHT31;67819;51.972;5.678;2023-04-28T13:17:49;15.6;74.9
78522;SHT31;67819;51.972;5.678;2023-04-28T13:20:18;15.6;74.8
78522;SHT31;67819;51.972;5.678;2023-04-28T13:22:46;15.6;74.1
78522;SHT31;67819;51.972;5.678;2023-04-28T13:25:15;15.6;74.2
78522;SHT31;67819;51.972;5.678;2023-04-28T13:27:43;15.6;74.6
78522;SHT31;67819;51.972;5.678;2023-04-28T13:30:14;15.6;75.5
78522;SHT31;67819;51.972;5.678;2023-04-28T13:32:43;15.5;76.6
78522;SHT31;67819;51.972;5.678;2023-04-28T13:35:11;15.5;76.4
78522;SHT31;67819;51.972;5.678;2023-04-28T13:37:40;15.5;77.0
78522;SHT31;67819;51.972;5.678;2023-04-28T13:40:12;15.5;76.5
78522;SHT31;67819;51.972;5.678;2023-04-28T13:42:42;15.5;76.8
78522;SHT31;67819;51.972;5.678;2023-04-28T13:45:12;15.5;77.2
78522;SHT31;67819;51.972;5.678;2023-04-28T13:47:41;15.4;76.8
78522;SHT31;67819;51.972;5.678;2023-04-28T13:50:10;15.4;76.8
78522;SHT31;67819;51.972;5.678;2023-04-28T13:52:38;15.4;77.2
78522;SHT31;67819;51.972;5.678;2023-04-28T13:55:09;15.4;77.1
78522;SHT31;67819;51.972;5.678;2023-04-28T13:57:38;15.4;77.7
78522;SHT31;67819;51.972;5.678;2023-04-28T14:00:10;15.5;77.5
78522;SHT31;67819;51.972;5.678;2023-04-28T14:02:41;15.5;76.9
78522;SHT31;67819;51.972;5.678;2023-04-28T14:05:10;15.6;77.2
78522;SHT31;67819;51.972;5.678;2023-04-28T14:07:41;15.6;76.9
78522;SHT31;67819;51.972;5.678;2023-04-28T14:10:10;15.6;76.2
78522;SHT31;67819;51.972;5.678;2023-04-28T14:12:39;15.7;76.3
78522;SHT31;67819;51.972;5.678;2023-04-28T14:15:09;15.7;76.1
78522;SHT31;67819;51.972;5.678;2023-04-28T14:17:38;15.7;76.2
78522;SHT31;67819;51.972;5.678;2023-04-28T14:20:09;15.7;76.2
78522;SHT31;67819;51.972;5.678;2023-04-28T14:22:40;15.7;76.7
78522;SHT31;67819;51.972;5.678;2023-04-28T14:25:11;15.7;76.8
78522;SHT31;67819;51.972;5.678;2023-04-28T14:27:39;15.6;76.6
78522;SHT31;67819;51.972;5.678;2023-04-28T14:30:11;15.6;76.5
78522;SHT31;67819;51.972;5.678;2023-04-28T14:32:39;15.6;75.7
78522;SHT31;67819;51.972;5.678;2023-04-28T14:35:10;15.6;76.2
78522;SHT31;67819;51.972;5.678;2023-04-28T14:37:39;15.5;77.5
78522;SHT31;67819;51.972;5.678;2023-04-28T14:40:09;15.5;77.7
78522;SHT31;67819;51.972;5.678;2023-04-28T14:42:37;15.5;77.6
78522;SHT31;67819;51.972;5.678;2023-04-28T14:45:08;15.4;78.4
78522;SHT31;67819;51.972;5.678;2023-04-28T14:47:38;15.4;79.1
78522;SHT31;67819;51.972;5.678;2023-04-28T14:50:10;15.4;79.6
78522;SHT31;67819;51.972;5.678;2023-04-28T14:52:39;15.4;79.8
78522;SHT31;67819;51.972;5.678;2023-04-28T14:55:11;15.3;80.7
78522;SHT31;67819;51.972;5.678;2023-04-28T14:57:40;15.3;80.4
78522;SHT31;67819;51.972;5.678;2023-04-28T15:00:10;15.4;80.8
78522;SHT31;67819;51.972;5.678;2023-04-28T15:02:39;15.4;80.3
78522;SHT31;67819;51.972;5.678;2023-04-28T15:05:08;15.4;79.8
78522;SHT31;67819;51.972;5.678;2023-04-28T15:07:36;15.4;79.6
78522;SHT31;67819;51.972;5.678;2023-04-28T15:10:06;15.4;79.6
78522;SHT31;67819;51.972;5.678;2023-04-28T15:12:34;15.4;78.8
78522;SHT31;67819;51.972;5.678;2023-04-28T15:15:03;15.4;78.6
78522;SHT31;67819;51.972;5.678;2023-04-28T15:17:32;15.4;78.0
78522;SHT31;67819;51.972;5.678;2023-04-28T15:20:01;15.4;77.7
78522;SHT31;67819;51.972;5.678;2023-04-28T15:22:29;15.4;77.5
78522;SHT31;67819;51.972;5.678;2023-04-28T15:24:58;15.4;77.8
78522;SHT31;67819;51.972;5.678;2023-04-28T15:27:27;15.3;78.6
78522;SHT31;67819;51.972;5.678;2023-04-28T15:29:55;15.3;78.8
78522;SHT31;67819;51.972;5.678;2023-04-28T15:32:24;15.2;79.1
78522;SHT31;67819;51.972;5.678;2023-04-28T15:34:53;15.1;79.2
78522;SHT31;67819;51.972;5.678;2023-04-28T15:37:41;15.1;79.6
78522;SHT31;67819;51.972;5.678;2023-04-28T15:40:12;15.1;80.6
78522;SHT31;67819;51.972;5.678;2023-04-28T15:42:42;15.0;80.4
78522;SHT31;67819;51.972;5.678;2023-04-28T15:45:15;15.0;80.6
78522;SHT31;67819;51.972;5.678;2023-04-28T15:47:45;15.0;80.7
78522;SHT31;67819;51.972;5.678;2023-04-28T15:50:18;15.0;81.0
78522;SHT31;67819;51.972;5.678;2023-04-28T15:52:47;14.9;81.3
78522;SHT31;67819;51.972;5.678;2023-04-28T15:55:19;14.9;81.8
78522;SHT31;67819;51.972;5.678;2023-04-28T15:57:50;14.9;81.5
78522;SHT31;67819;51.972;5.678;2023-04-28T16:00:19;14.9;81.8
78522;SHT31;67819;51.972;5.678;2023-04-28T16:02:48;14.9;81.8
78522;SHT31;67819;51.972;5.678;2023-04-28T16:05:18;14.9;81.7
78522;SHT31;67819;51.972;5.678;2023-04-28T16:07:47;14.9;81.2
78522;SHT31;67819;51.972;5.678;2023-04-28T16:10:18;14.9;81.3
78522;SHT31;67819;51.972;5.678;2023-04-28T16:12:46;14.9;81.3
78522;SHT31;67819;51.972;5.678;2023-04-28T16:15:15;14.9;81.4
78522;SHT31;67819;51.972;5.678;2023-04-28T16:17:44;14.9;81.5
78522;SHT31;67819;51.972;5.678;2023-04-28T16:20:14;14.9;81.2
78522;SHT31;67819;51.972;5.678;2023-04-28T16:22:43;14.8;81.6